createdAt,value
2023-01-21T00:01:05.061Z,100314.55
2023-01-21T00:03:31.974Z,100306.61
2023-01-21T00:05:58.909Z,100304.48
2023-01-21T00:08:26.629Z,100302.80
2023-01-21T00:10:53.961Z,100301.10
2023-01-21T00:13:20.990Z,100297.71
2023-01-21T00:15:47.898Z,100299.36
2023-01-21T00:18:14.696Z,100304.11
2023-01-21T00:20:41.647Z,100304.50
2023-01-21T00:23:10.798Z,100310.42
2023-01-21T00:25:37.733Z,100309.51
2023-01-21T00:28:04.627Z,100315.48
2023-01-21T00:30:31.507Z,100323.85
2023-01-21T00:32:58.426Z,100321.31
2023-01-21T00:35:25.193Z,100319.09
2023-01-21T00:37:52.470Z,100317.16
2023-01-21T00:40:19.467Z,100315.87
2023-01-21T00:42:46.296Z,100326.30
2023-01-21T00:45:13.100Z,100321.11
2023-01-21T00:47:40.147Z,100315.35
2023-01-21T00:50:08.838Z,100316.67
2023-01-21T00:52:36.184Z,100316.36
2023-01-21T00:55:03.229Z,100312.19
2023-01-21T00:57:30.389Z,100304.20
2023-01-21T00:59:57.661Z,100304.67
2023-01-21T01:02:24.524Z,100305.59
2023-01-21T01:04:51.384Z,100312.63
2023-01-21T01:07:18.189Z,100312.85
2023-01-21T01:09:44.960Z,100313.61
2023-01-21T01:12:11.710Z,100298.18
2023-01-21T01:14:38.487Z,100300.52
2023-01-21T01:17:05.328Z,100288.94
2023-01-21T01:19:32.180Z,100285.97
2023-01-21T01:21:58.961Z,100277.94
2023-01-21T01:24:25.855Z,100278.28
2023-01-21T01:26:52.708Z,100277.57
2023-01-21T01:29:19.523Z,100285.48
2023-01-21T01:31:46.436Z,100285.40
2023-01-21T01:34:13.309Z,100286.94
2023-01-21T01:36:40.175Z,100285.55
2023-01-21T01:39:07.832Z,100292.86
2023-01-21T01:41:35.490Z,100295.27
2023-01-21T01:44:06.478Z,100293.04
2023-01-21T01:46:35.239Z,100293.88
2023-01-21T01:49:09.709Z,100286.03
2023-01-21T01:51:58.161Z,100293.80
2023-01-21T01:54:28.532Z,100299.42
2023-01-21T01:56:56.468Z,100304.29
2023-01-21T01:59:23.310Z,100311.90
2023-01-21T02:01:50.137Z,100305.98
2023-01-21T02:04:20.167Z,100313.10
2023-01-21T02:06:47.395Z,100312.80
2023-01-21T02:09:14.142Z,100325.86
2023-01-21T02:11:40.935Z,100326.34
2023-01-21T02:14:07.722Z,100327.61
2023-01-21T02:16:47.468Z,100320.13
2023-01-21T02:19:39.742Z,100309.73
2023-01-21T02:22:21.845Z,100298.18
2023-01-21T02:25:26.685Z,100300.52
2023-01-21T02:28:08.885Z,100288.61
2023-01-21T02:30:57.616Z,100285.84
2023-01-21T02:33:45.581Z,100276.75
2023-01-21T02:36:27.191Z,100275.73
2023-01-21T02:39:10.043Z,100277.08
2023-01-21T02:41:58.265Z,100270.96
2023-01-21T02:44:27.834Z,100264.36
2023-01-21T02:47:24.236Z,100268.66
2023-01-21T02:49:57.119Z,100295.44
2023-01-21T02:52:24.724Z,100294.55
2023-01-21T02:54:59.313Z,100290.09
2023-01-21T02:58:00.381Z,100278.30
2023-01-21T03:00:30.312Z,100282.89
2023-01-21T03:03:21.307Z,100285.96
2023-01-21T03:06:13.177Z,100298.63
2023-01-21T03:08:49.398Z,100284.95
2023-01-21T03:11:17.177Z,100294.70
2023-01-21T03:14:08.477Z,100297.96
2023-01-21T03:16:58.608Z,100292.75
2023-01-21T03:19:31.313Z,100283.12
2023-01-21T03:21:58.979Z,100281.08
2023-01-21T03:24:25.845Z,100264.67
2023-01-21T03:26:52.689Z,100249.15
2023-01-21T03:29:22.266Z,100243.86
2023-01-21T03:31:51.506Z,100237.73
2023-01-21T03:34:18.287Z,100228.23
2023-01-21T03:36:49.021Z,100212.94
2023-01-21T03:39:21.277Z,100215.83
2023-01-21T03:41:48.154Z,100235.70
2023-01-21T03:44:14.884Z,100233.57
2023-01-21T03:46:46.222Z,100223.58
2023-01-21T03:49:19.682Z,100219.23
2023-01-21T03:51:54.983Z,100211.93
2023-01-21T03:54:22.152Z,100209.28
2023-01-21T03:56:48.913Z,100214.27
2023-01-21T03:59:15.739Z,100234.55
2023-01-21T04:01:42.486Z,100244.44
2023-01-21T04:04:09.646Z,100277.71
2023-01-21T04:06:37.310Z,100307.77
2023-01-21T04:09:05.040Z,100304.98
2023-01-21T04:11:31.897Z,100309.31
2023-01-21T04:13:58.661Z,100300.92
2023-01-21T04:16:25.541Z,100286.60
2023-01-21T04:18:52.423Z,100298.23
2023-01-21T04:21:19.266Z,100287.70
2023-01-21T04:23:45.987Z,100280.45
2023-01-21T04:26:12.792Z,100290.43
2023-01-21T04:28:39.521Z,100291.30
2023-01-21T04:31:06.317Z,100291.66
2023-01-21T04:33:33.153Z,100290.83
2023-01-21T04:36:00.529Z,100298.56
2023-01-21T04:38:27.600Z,100304.60
2023-01-21T04:40:54.398Z,100304.02
2023-01-21T04:43:21.361Z,100303.81
2023-01-21T04:45:48.328Z,100312.36
2023-01-21T04:48:15.153Z,100311.41
2023-01-21T04:50:41.915Z,100311.52
2023-01-21T04:53:08.660Z,100309.51
2023-01-21T04:55:35.471Z,100316.38
2023-01-21T04:58:02.199Z,100315.06
2023-01-21T05:00:29.014Z,100317.78
2023-01-21T05:02:55.775Z,100320.89
2023-01-21T05:05:22.610Z,100316.42
2023-01-21T05:07:53.066Z,100308.45
2023-01-21T05:10:19.970Z,100316.86
2023-01-21T05:12:46.792Z,100320.30
2023-01-21T05:15:13.698Z,100303.36
2023-01-21T05:17:40.564Z,100299.04
2023-01-21T05:20:07.879Z,100307.59
2023-01-21T05:22:34.646Z,100302.55
2023-01-21T05:25:01.677Z,100305.38
2023-01-21T05:27:28.416Z,100300.83
2023-01-21T05:29:57.116Z,100299.93
2023-01-21T05:32:24.038Z,100306.25
2023-01-21T05:34:50.893Z,100313.96
2023-01-21T05:37:17.654Z,100319.02
2023-01-21T05:39:44.761Z,100317.96
2023-01-21T05:42:12.454Z,100324.09
2023-01-21T05:44:39.273Z,100319.28
2023-01-21T05:47:07.614Z,100316.94
2023-01-21T05:49:35.052Z,100314.90
2023-01-21T05:52:01.966Z,100315.86
2023-01-21T05:54:28.732Z,100308.39
2023-01-21T05:56:55.599Z,100299.45
2023-01-21T05:59:22.488Z,100296.11
2023-01-21T06:01:49.332Z,100298.79
2023-01-21T06:04:16.113Z,100302.77
2023-01-21T06:06:42.911Z,100309.73
2023-01-21T06:09:09.817Z,100311.63
2023-01-21T06:11:36.545Z,100313.20
2023-01-21T06:14:03.372Z,100316.55
2023-01-21T06:16:30.148Z,100320.45
2023-01-21T06:18:56.893Z,100332.52
2023-01-21T06:21:23.763Z,100337.51
2023-01-21T06:23:50.564Z,100348.80
2023-01-21T06:26:17.280Z,100354.63
2023-01-21T06:28:44.088Z,100360.48
2023-01-21T06:31:11.085Z,100364.77
2023-01-21T06:33:37.913Z,100361.15
2023-01-21T06:36:05.001Z,100366.43
2023-01-21T06:38:36.089Z,100361.02
2023-01-21T06:41:03.395Z,100362.33
2023-01-21T06:43:30.305Z,100374.52
2023-01-21T06:45:57.078Z,100381.89
2023-01-21T06:48:23.898Z,100376.01
2023-01-21T06:50:50.751Z,100378.80
2023-01-21T06:53:17.677Z,100380.61
2023-01-21T06:55:44.579Z,100374.99
2023-01-21T06:58:11.573Z,100382.02
2023-01-21T07:00:38.353Z,100376.53
2023-01-21T07:03:05.230Z,100378.64
2023-01-21T07:05:32.050Z,100381.80
2023-01-21T07:07:59.692Z,100380.88
2023-01-21T07:10:26.734Z,100367.33
2023-01-21T07:12:53.604Z,100364.38
2023-01-21T07:15:20.379Z,100361.84
2023-01-21T07:17:47.170Z,100361.14
2023-01-21T07:20:14.036Z,100335.62
2023-01-21T07:22:40.839Z,100330.86
2023-01-21T07:25:08.222Z,100332.34
2023-01-21T07:27:35.087Z,100345.86
2023-01-21T07:30:01.880Z,100383.16
2023-01-21T07:32:28.753Z,100403.27
2023-01-21T07:34:55.485Z,100407.78
2023-01-21T07:37:22.331Z,100412.42
2023-01-21T07:39:49.088Z,100435.82
2023-01-21T07:42:15.913Z,100420.91
2023-01-21T07:44:42.834Z,100434.30
2023-01-21T07:47:10.651Z,100436.62
2023-01-21T07:49:37.708Z,100433.92
2023-01-21T07:52:04.614Z,100441.30
2023-01-21T07:54:31.452Z,100438.20
2023-01-21T07:56:58.590Z,100465.27
2023-01-21T07:59:25.389Z,100475.98
2023-01-21T08:01:52.530Z,100471.38
2023-01-21T08:04:19.518Z,100469.89
2023-01-21T08:06:46.292Z,100469.71
2023-01-21T08:09:13.086Z,100470.06
2023-01-21T08:11:39.957Z,100491.86
2023-01-21T08:14:06.764Z,100499.44
2023-01-21T08:16:33.682Z,100499.04
2023-01-21T08:19:00.530Z,100495.36
2023-01-21T08:21:27.471Z,100496.48
2023-01-21T08:23:54.246Z,100486.88
2023-01-21T08:26:20.996Z,100476.30
2023-01-21T08:28:47.969Z,100483.41
2023-01-21T08:31:14.839Z,100466.48
2023-01-21T08:33:42.374Z,100470.31
2023-01-21T08:36:09.611Z,100454.16
2023-01-21T08:38:36.764Z,100455.04
2023-01-21T08:41:04.560Z,100453.59
2023-01-21T08:43:31.385Z,100454.27
2023-01-21T08:45:59.417Z,100448.66
2023-01-21T08:48:26.312Z,100477.40
2023-01-21T08:50:53.106Z,100496.11
2023-01-21T08:53:20.004Z,100508.20
2023-01-21T08:55:46.796Z,100512.70
2023-01-21T08:58:13.539Z,100510.45
2023-01-21T09:00:41.986Z,100496.21
2023-01-21T09:03:08.829Z,100489.39
2023-01-21T09:05:35.729Z,100497.29
2023-01-21T09:08:02.567Z,100493.62
2023-01-21T09:10:48.255Z,100490.32
2023-01-21T09:13:16.504Z,100479.39
2023-01-21T09:15:43.594Z,100477.21
2023-01-21T09:18:10.733Z,100490.52
2023-01-21T09:20:38.059Z,100495.36
2023-01-21T09:23:24.364Z,100500.02
2023-01-21T09:26:01.477Z,100505.00
2023-01-21T09:28:28.237Z,100497.06
2023-01-21T09:31:02.971Z,100504.13
2023-01-21T09:33:30.595Z,100506.31
2023-01-21T09:35:58.649Z,100504.93
2023-01-21T09:38:26.033Z,100502.77
2023-01-21T09:40:53.025Z,100509.06
2023-01-21T09:43:34.334Z,100499.27
2023-01-21T09:46:04.145Z,100499.11
2023-01-21T09:48:34.217Z,100499.45
2023-01-21T09:51:03.348Z,100493.31
2023-01-21T09:53:38.151Z,100485.98
2023-01-21T09:56:05.085Z,100488.08
2023-01-21T09:58:38.821Z,100480.31
2023-01-21T10:01:09.415Z,100487.78
2023-01-21T10:03:56.722Z,100493.25
2023-01-21T12:22:24.626Z,100578.94
2023-01-21T12:24:54.377Z,100594.73
2023-01-21T12:27:36.560Z,100608.47
2023-01-21T12:30:22.412Z,100601.88
2023-01-21T12:32:51.516Z,100603.09
2023-01-21T12:35:29.635Z,100609.77
2023-01-21T12:38:00.719Z,100618.80
2023-01-21T12:40:31.354Z,100626.83
2023-01-21T12:43:06.009Z,100625.43
2023-01-21T12:45:46.367Z,100630.16
2023-01-21T12:48:42.627Z,100637.92
2023-01-21T12:51:11.604Z,100643.72
2023-01-21T12:53:46.531Z,100649.09
2023-01-21T12:56:24.949Z,100648.13
2023-01-21T12:58:58.051Z,100660.16
2023-01-21T13:01:55.016Z,100656.85
2023-01-21T13:04:31.754Z,100651.61
2023-01-21T13:07:06.156Z,100655.94
2023-01-21T13:09:46.556Z,100654.95
2023-01-21T13:12:24.521Z,100660.30
2023-01-21T13:15:02.760Z,100666.00
2023-01-21T13:17:32.215Z,100676.51
2023-01-21T13:19:59.476Z,100685.94
2023-01-21T13:22:42.939Z,100690.21
2023-01-21T13:25:37.819Z,100689.45
2023-01-21T13:28:30.799Z,100695.71
2023-01-21T13:31:19.729Z,100701.02
2023-01-21T13:33:52.939Z,100706.74
2023-01-21T13:36:58.896Z,100715.94
2023-01-21T13:39:50.742Z,100723.80
2023-01-21T13:42:20.729Z,100732.41
2023-01-21T13:44:52.363Z,100732.07
2023-01-21T13:48:07.893Z,100736.79
2023-01-21T13:50:53.844Z,100741.85
2023-01-21T13:53:58.808Z,100746.46
2023-01-21T13:56:33.226Z,100751.27
2023-01-21T13:59:02.040Z,100760.60
2023-01-21T14:01:35.623Z,100759.35
2023-01-21T14:04:10.021Z,100761.11
2023-01-21T14:06:46.096Z,100756.54
2023-01-21T14:09:25.595Z,100755.61
2023-01-21T14:12:02.125Z,100756.45
2023-01-21T14:14:45.737Z,100757.46
2023-01-21T14:17:31.422Z,100762.39
2023-01-21T14:19:58.273Z,100761.52
2023-01-21T14:22:28.180Z,100765.02
2023-01-21T14:25:19.468Z,100763.88
2023-01-21T14:28:48.294Z,100771.86
2023-01-21T14:31:21.440Z,100774.77
2023-01-21T14:33:58.053Z,100783.30
2023-01-21T14:37:16.612Z,100784.50
2023-01-21T14:40:06.780Z,100789.79
2023-01-21T14:42:49.264Z,100796.04
2023-01-21T14:45:20.535Z,100800.77
2023-01-21T14:47:52.363Z,100802.34
2023-01-21T14:50:43.185Z,100811.49
2023-01-21T14:53:28.096Z,100809.17
2023-01-21T14:56:28.925Z,100812.08
2023-01-21T14:59:04.265Z,100818.39
2023-01-21T15:01:42.133Z,100816.34
2023-01-21T15:04:25.750Z,100819.80
2023-01-21T15:06:55.156Z,100814.89
2023-01-21T15:09:26.040Z,100819.33
2023-01-21T15:11:57.095Z,100823.67
2023-01-21T15:14:45.708Z,100825.06
2023-01-21T15:17:44.916Z,100823.21
2023-01-21T15:20:43.112Z,100828.41
2023-01-21T15:23:29.000Z,100838.63
2023-01-21T15:26:11.240Z,100845.48
2023-01-21T15:28:53.665Z,100840.61
2023-01-21T15:31:20.453Z,100840.47
2023-01-21T15:33:58.786Z,100843.52
2023-01-21T15:36:31.880Z,100852.52
2023-01-21T15:39:02.355Z,100854.95
2023-01-21T15:41:39.086Z,100862.25
2023-01-21T15:44:34.305Z,100871.64
2023-01-21T15:47:27.116Z,100873.16
2023-01-21T15:50:13.003Z,100881.06
2023-01-21T15:52:49.033Z,100887.34
2023-01-21T15:55:44.609Z,100885.41
2023-01-21T15:58:35.179Z,100892.67
2023-01-21T16:01:10.655Z,100902.53
2023-01-21T16:03:47.566Z,100904.60
2023-01-21T16:07:02.163Z,100909.63
2023-01-21T18:20:04.833Z,101050.64
2023-01-21T18:22:31.649Z,101055.39
2023-01-21T18:25:00.770Z,101054.44
2023-01-21T18:27:27.512Z,101058.95
2023-01-21T18:29:54.255Z,101058.77
2023-01-21T18:32:21.296Z,101067.55
2023-01-21T18:34:49.679Z,101067.40
2023-01-21T18:37:17.433Z,101069.42
2023-01-21T18:39:44.383Z,101069.20
2023-01-21T18:42:15.526Z,101072.80
2023-01-21T18:44:42.351Z,101077.52
2023-01-21T18:47:11.112Z,101075.98
2023-01-21T18:49:38.007Z,101079.29
2023-01-21T18:52:04.948Z,101081.38
2023-01-21T18:54:32.403Z,101088.98
2023-01-21T18:56:59.246Z,101086.88
2023-01-21T18:59:26.515Z,101090.42
2023-01-21T19:01:53.470Z,101087.61
2023-01-21T19:04:20.770Z,101090.64
2023-01-21T19:06:49.798Z,101092.77
2023-01-21T19:09:22.506Z,101099.98
2023-01-21T19:11:49.307Z,101096.04
2023-01-21T19:14:15.920Z,101102.42
2023-01-21T19:16:43.266Z,101102.75
2023-01-21T19:19:15.440Z,101106.23
2023-01-21T19:21:42.840Z,101105.50
2023-01-21T19:24:11.897Z,101115.48
2023-01-21T19:26:39.489Z,101110.71
2023-01-21T19:29:07.307Z,101114.30
2023-01-21T19:31:34.515Z,101117.44
2023-01-21T19:34:01.288Z,101124.17
2023-01-21T19:36:29.412Z,101127.69
2023-01-21T19:38:57.791Z,101132.25
2023-01-21T19:41:24.731Z,101127.84
2023-01-21T19:43:51.572Z,101130.08
2023-01-21T19:46:18.705Z,101129.68
2023-01-21T19:48:49.824Z,101131.63
2023-01-21T19:51:16.431Z,101131.77
2023-01-21T19:53:44.812Z,101137.13
2023-01-21T19:56:14.040Z,101135.80
2023-01-21T19:58:41.554Z,101138.50
2023-01-21T20:01:09.625Z,101140.73
2023-01-21T20:03:36.663Z,101142.06
2023-01-21T20:06:03.684Z,101144.11
2023-01-21T20:08:31.367Z,101146.02
2023-01-21T20:10:58.000Z,101151.73
2023-01-21T20:13:25.667Z,101152.60
2023-01-21T20:15:52.422Z,101159.55
2023-01-21T20:18:26.429Z,101160.50
2023-01-21T20:20:53.277Z,101167.45
2023-01-21T20:23:21.537Z,101168.98
2023-01-21T20:25:49.833Z,101173.52
2023-01-21T20:28:17.230Z,101177.58
2023-01-21T20:30:44.433Z,101178.63
2023-01-21T20:33:12.074Z,101179.83
2023-01-21T20:35:39.308Z,101182.91
2023-01-21T20:38:06.275Z,101183.86
2023-01-21T20:40:35.389Z,101187.49
2023-01-21T20:43:02.827Z,101192.83
2023-01-21T20:45:32.660Z,101192.36
2023-01-21T20:48:02.185Z,101196.71
2023-01-21T20:50:33.048Z,101197.41
2023-01-21T20:52:59.833Z,101194.70
2023-01-21T20:55:27.929Z,101197.48
2023-01-21T20:57:55.660Z,101201.82
2023-01-21T21:00:23.177Z,101206.12
2023-01-21T21:02:49.869Z,101206.59
2023-01-21T21:05:17.402Z,101203.95
2023-01-21T21:07:44.722Z,101206.06
2023-01-21T21:10:24.628Z,101210.91
2023-01-21T21:12:51.733Z,101212.48
2023-01-21T21:15:19.896Z,101213.18
2023-01-21T21:17:47.240Z,101207.60
2023-01-21T21:20:19.569Z,101214.81
2023-01-21T21:22:47.634Z,101209.86
2023-01-21T21:25:18.257Z,101214.05
2023-01-21T21:27:45.264Z,101218.16
2023-01-21T21:30:13.339Z,101223.38
2023-01-21T21:32:41.271Z,101224.92
2023-01-21T21:35:23.148Z,101223.65
2023-01-21T21:37:50.762Z,101226.27
2023-01-21T21:40:18.744Z,101226.63
2023-01-21T21:43:04.579Z,101227.05
2023-01-21T21:45:31.519Z,101229.83
2023-01-21T21:48:17.073Z,101230.88
2023-01-21T21:50:44.034Z,101230.44
2023-01-21T21:53:10.880Z,101235.78
2023-01-21T21:55:37.514Z,101237.59
2023-01-21T21:58:05.360Z,101244.11
2023-01-21T22:00:31.971Z,101244.50
2023-01-21T22:03:01.861Z,101253.02
2023-01-21T22:05:29.719Z,101252.52
2023-01-21T22:07:56.335Z,101251.32
2023-01-21T22:10:23.165Z,101250.73
2023-01-21T22:12:50.236Z,101255.29
2023-01-21T22:15:17.125Z,101257.37
2023-01-21T22:17:44.219Z,101255.95
2023-01-21T22:20:11.853Z,101253.05
2023-01-21T22:22:39.366Z,101264.11
2023-01-21T22:25:06.997Z,101268.18
2023-01-21T22:27:33.739Z,101265.83
2023-01-21T22:30:01.576Z,101264.53
2023-01-21T22:32:28.528Z,101267.11
2023-01-21T22:34:55.390Z,101266.90
2023-01-21T22:37:22.856Z,101268.98
2023-01-21T22:39:49.725Z,101274.19
2023-01-21T22:42:16.348Z,101271.73
2023-01-21T22:44:42.916Z,101272.11
2023-01-21T22:47:09.872Z,101271.02
2023-01-21T22:49:36.960Z,101273.92
2023-01-21T22:52:03.759Z,101274.90
2023-01-21T22:54:30.744Z,101279.71
2023-01-21T22:56:57.593Z,101277.72
2023-01-21T22:59:24.157Z,101281.83
2023-01-21T23:01:50.871Z,101284.73
2023-01-21T23:04:18.126Z,101285.69
2023-01-21T23:06:47.044Z,101288.83
2023-01-21T23:09:15.080Z,101289.55
2023-01-21T23:11:44.177Z,101296.39
2023-01-21T23:14:10.809Z,101293.38
2023-01-21T23:16:37.667Z,101295.45
2023-01-21T23:19:04.465Z,101297.71
2023-01-21T23:21:31.545Z,101302.23
2023-01-21T23:23:58.452Z,101311.86
2023-01-21T23:26:25.155Z,101313.73
2023-01-21T23:28:55.486Z,101310.70
2023-01-21T23:31:22.539Z,101316.94
2023-01-21T23:33:50.465Z,101321.04
2023-01-21T23:36:17.417Z,101324.35
2023-01-21T23:38:44.912Z,101328.19
2023-01-21T23:41:13.044Z,101335.89
2023-01-21T23:43:39.598Z,101334.02
2023-01-21T23:46:08.271Z,101337.75
2023-01-21T23:48:35.522Z,101339.92
2023-01-21T23:51:03.431Z,101340.30
2023-01-21T23:53:30.850Z,101341.56
2023-01-21T23:56:13.875Z,101343.98
2023-01-21T23:58:40.620Z,101347.48
